createdAt,value
2018-01-15T00:01:33.527Z,-1.25
2018-01-15T00:03:59.556Z,-1.33
2018-01-15T00:06:25.609Z,-1.45
2018-01-15T00:08:51.664Z,-1.50
2018-01-15T00:11:17.681Z,-1.54
2018-01-15T00:13:43.760Z,-1.62
2018-01-15T00:16:09.912Z,-1.75
2018-01-15T00:18:35.876Z,-1.84
2018-01-15T00:21:01.916Z,-1.88
2018-01-15T00:23:27.942Z,-1.92
2018-01-15T00:25:53.863Z,-1.98
2018-01-15T00:28:19.931Z,-1.94
2018-01-15T00:30:45.984Z,-1.89
2018-01-15T00:33:12.053Z,-2.05
2018-01-15T00:35:38.057Z,-2.15
2018-01-15T00:38:04.127Z,-2.28
2018-01-15T00:40:30.164Z,-2.12
2018-01-15T00:42:56.248Z,-2.12
2018-01-15T00:45:22.288Z,-2.12
2018-01-15T00:47:48.321Z,-2.25
2018-01-15T00:50:14.260Z,-2.26
2018-01-15T00:52:40.256Z,-2.42
2018-01-15T00:55:06.330Z,-2.39
2018-01-15T00:57:32.384Z,-2.18
2018-01-15T00:59:58.400Z,-2.17
2018-01-15T01:02:24.442Z,-2.25
2018-01-15T01:04:50.455Z,-2.25
2018-01-15T01:07:16.461Z,-2.34
2018-01-15T01:09:42.507Z,-2.40
2018-01-15T01:12:08.536Z,-2.40
2018-01-15T01:14:34.552Z,-2.46
2018-01-15T01:17:00.621Z,-2.40
2018-01-15T01:19:26.616Z,-2.44
2018-01-15T01:21:52.625Z,-2.41
2018-01-15T01:24:18.732Z,-2.56
2018-01-15T01:26:51.676Z,-2.55
2018-01-15T01:29:18.093Z,-2.52
2018-01-15T01:31:44.119Z,-2.47
2018-01-15T01:34:10.117Z,-2.55
2018-01-15T01:36:36.127Z,-2.56
2018-01-15T01:39:02.153Z,-2.61
2018-01-15T01:41:28.169Z,-2.68
2018-01-15T01:43:54.255Z,-2.82
2018-01-15T01:46:20.304Z,-2.81
2018-01-15T01:48:57.589Z,-2.85
2018-01-15T01:51:23.607Z,-2.88
2018-01-15T01:53:49.664Z,-2.90
2018-01-15T01:56:15.705Z,-2.87
2018-01-15T01:58:41.721Z,-2.79
2018-01-15T02:01:07.763Z,-2.78
2018-01-15T02:03:33.796Z,-2.63
2018-01-15T02:05:59.856Z,-2.70
2018-01-15T02:08:25.865Z,-2.75
2018-01-15T02:10:51.905Z,-2.73
2018-01-15T02:13:17.936Z,-2.64
2018-01-15T02:15:43.965Z,-2.58
2018-01-15T02:18:09.984Z,-2.73
2018-01-15T02:20:36.041Z,-2.72
2018-01-15T02:23:02.092Z,-2.78
2018-01-15T02:25:28.164Z,-2.90
2018-01-15T02:27:54.164Z,-2.95
2018-01-15T02:30:20.161Z,-3.12
2018-01-15T02:32:46.195Z,-3.00
2018-01-15T02:35:12.230Z,-2.94
2018-01-15T02:37:38.232Z,-2.96
2018-01-15T02:40:04.357Z,-3.11
2018-01-15T02:42:30.356Z,-3.33
2018-01-15T02:44:57.014Z,-3.26
2018-01-15T02:47:23.026Z,-3.19
2018-01-15T02:49:49.055Z,-3.19
2018-01-15T02:52:15.099Z,-3.14
2018-01-15T02:54:41.091Z,-3.17
2018-01-15T02:57:07.184Z,-3.10
2018-01-15T02:59:33.140Z,-3.12
2018-01-15T03:01:59.177Z,-3.26
2018-01-15T03:04:25.569Z,-3.39
2018-01-15T03:06:51.560Z,-3.33
2018-01-15T03:09:17.587Z,-3.36
2018-01-15T03:11:43.596Z,-3.33
2018-01-15T03:14:09.686Z,-3.27
2018-01-15T03:16:35.700Z,-3.27
2018-01-15T03:19:01.817Z,-3.28
2018-01-15T03:21:27.923Z,-3.28
2018-01-15T03:23:53.913Z,-3.21
2018-01-15T03:26:19.948Z,-3.15
2018-01-15T03:28:46.029Z,-3.22
2018-01-15T03:31:12.044Z,-3.27
2018-01-15T03:33:38.078Z,-3.20
2018-01-15T03:36:04.100Z,-3.10
2018-01-15T03:38:30.113Z,-3.17
2018-01-15T03:40:56.220Z,-3.21
2018-01-15T03:43:22.268Z,-3.38
2018-01-15T03:45:48.295Z,-3.40
2018-01-15T03:48:14.344Z,-3.30
2018-01-15T03:50:40.392Z,-3.38
2018-01-15T03:53:06.432Z,-3.31
2018-01-15T03:55:32.465Z,-3.36
2018-01-15T03:57:58.463Z,-3.30
2018-01-15T04:00:24.492Z,-3.25
2018-01-15T04:02:50.492Z,-3.26
2018-01-15T04:05:16.481Z,-3.25
2018-01-15T04:07:42.513Z,-3.24
2018-01-15T04:10:08.512Z,-3.24
2018-01-15T04:12:34.777Z,-3.21
2018-01-15T04:15:00.795Z,-3.12
2018-01-15T04:17:26.777Z,-3.09
2018-01-15T04:19:52.793Z,-3.20
2018-01-15T04:22:18.784Z,-3.26
2018-01-15T04:24:44.815Z,-3.19
2018-01-15T04:27:10.842Z,-3.13
2018-01-15T04:29:36.864Z,-3.07
2018-01-15T04:32:02.887Z,-3.11
2018-01-15T04:34:28.909Z,-3.19
2018-01-15T04:36:54.965Z,-2.94
2018-01-15T04:39:21.005Z,-2.91
2018-01-15T04:41:47.016Z,-2.99
2018-01-15T04:44:13.061Z,-2.90
2018-01-15T04:46:39.100Z,-2.73
2018-01-15T04:49:05.296Z,-2.78
2018-01-15T04:51:31.280Z,-2.85
2018-01-15T04:53:57.391Z,-2.86
2018-01-15T04:56:23.420Z,-2.77
2018-01-15T04:58:49.409Z,-2.69
2018-01-15T05:01:15.419Z,-2.65
2018-01-15T05:03:41.336Z,-2.60
2018-01-15T05:06:07.372Z,-2.55
2018-01-15T05:08:33.444Z,-2.49
2018-01-15T05:10:59.424Z,-2.51
2018-01-15T05:13:25.372Z,-2.47
2018-01-15T05:15:51.384Z,-2.41
2018-01-15T05:18:17.428Z,-2.36
2018-01-15T05:20:43.421Z,-2.33
2018-01-15T05:23:09.477Z,-2.23
2018-01-15T05:25:35.492Z,-2.21
2018-01-15T05:28:01.534Z,-2.15
2018-01-15T05:30:27.566Z,-2.14
2018-01-15T05:32:53.608Z,-2.09
2018-01-15T05:35:19.655Z,-2.06
2018-01-15T05:37:45.672Z,-2.04
2018-01-15T05:40:12.528Z,-2.00
2018-01-15T05:42:38.537Z,-1.90
2018-01-15T05:45:04.625Z,-1.97
2018-01-15T05:47:30.696Z,-1.90
2018-01-15T05:49:56.975Z,-1.89
2018-01-15T05:52:22.992Z,-1.86
2018-01-15T05:54:49.032Z,-1.82
2018-01-15T05:57:15.119Z,-1.75
2018-01-15T05:59:41.124Z,-1.69
2018-01-15T06:02:07.172Z,-1.71
2018-01-15T06:04:33.201Z,-1.71
2018-01-15T06:06:59.201Z,-1.71
2018-01-15T06:09:25.232Z,-1.71
2018-01-15T06:11:51.288Z,-1.68
2018-01-15T06:14:17.237Z,-1.68
2018-01-15T06:16:43.265Z,-1.66
2018-01-15T06:19:09.321Z,-1.68
2018-01-15T06:21:35.396Z,-1.64
2018-01-15T06:24:01.445Z,-1.59
2018-01-15T06:26:27.476Z,-1.57
2018-01-15T06:28:53.496Z,-1.56
2018-01-15T06:31:19.485Z,-1.55
2018-01-15T06:33:45.637Z,-1.51
2018-01-15T06:36:11.660Z,-1.47
2018-01-15T06:38:37.691Z,-1.47
2018-01-15T06:41:03.756Z,-1.46
2018-01-15T06:43:29.797Z,-1.39
2018-01-15T06:45:55.793Z,-1.43
2018-01-15T06:48:21.805Z,-1.43
2018-01-15T06:50:47.825Z,-1.43
2018-01-15T06:53:14.021Z,-1.41
2018-01-15T06:55:40.025Z,-1.39
2018-01-15T06:58:06.085Z,-1.40
2018-01-15T07:00:32.107Z,-1.40
2018-01-15T07:02:58.181Z,-1.39
2018-01-15T07:05:24.260Z,-1.41
2018-01-15T07:07:50.456Z,-1.43
2018-01-15T07:10:16.432Z,-1.45
2018-01-15T07:12:42.457Z,-1.40
2018-01-15T07:15:15.357Z,-1.40
2018-01-15T07:17:41.366Z,-1.44
2018-01-15T07:20:07.377Z,-1.34
2018-01-15T07:22:33.529Z,-1.31
2018-01-15T07:24:59.552Z,-1.32
2018-01-15T07:27:25.572Z,-1.37
2018-01-15T07:29:51.659Z,-1.29
2018-01-15T07:32:17.701Z,-1.24
2018-01-15T07:34:43.771Z,-0.94
2018-01-15T07:37:09.793Z,-1.02
2018-01-15T07:39:35.929Z,-1.10
2018-01-15T07:42:01.941Z,-1.12
2018-01-15T07:44:27.925Z,-1.03
2018-01-15T07:46:54.060Z,-0.99
2018-01-15T07:49:20.085Z,-0.90
2018-01-15T07:51:46.174Z,-0.91
2018-01-15T07:54:12.995Z,-0.89
2018-01-15T07:56:39.499Z,-0.67
2018-01-15T07:59:06.581Z,-0.60
2018-01-15T08:01:32.617Z,-0.49
2018-01-15T08:03:58.624Z,-0.48
2018-01-15T08:06:24.644Z,-0.40
2018-01-15T08:08:50.676Z,-0.39
2018-01-15T08:11:16.685Z,-0.40
2018-01-15T08:13:42.717Z,-0.34
2018-01-15T08:16:08.768Z,-0.40
2018-01-15T08:18:34.795Z,-0.34
2018-01-15T08:21:00.812Z,-0.29
2018-01-15T08:23:26.836Z,-0.40
2018-01-15T08:25:52.833Z,-0.35
2018-01-15T08:28:18.861Z,-0.35
2018-01-15T08:30:44.818Z,-0.41
2018-01-15T08:33:10.765Z,-0.36
2018-01-15T08:35:36.869Z,-0.33
2018-01-15T08:38:02.892Z,-0.35
2018-01-15T08:40:28.954Z,-0.39
2018-01-15T08:42:55.005Z,-0.28
2018-01-15T08:45:21.016Z,-0.20
2018-01-15T08:47:47.045Z,-0.14
2018-01-15T08:50:13.076Z,-0.11
2018-01-15T08:52:39.081Z,-0.13
2018-01-15T08:55:05.077Z,-0.14
2018-01-15T08:57:31.136Z,-0.14
2018-01-15T08:59:57.135Z,-0.15
2018-01-15T09:02:23.165Z,-0.11
2018-01-15T09:04:49.251Z,-0.08
2018-01-15T09:07:15.288Z,-0.04
2018-01-15T09:09:41.318Z,0.07
2018-01-15T09:12:07.339Z,0.09
2018-01-15T09:14:33.330Z,0.20
2018-01-15T09:16:59.360Z,0.20
2018-01-15T09:19:25.372Z,0.15
2018-01-15T09:21:51.411Z,0.19
2018-01-15T09:24:17.416Z,0.24
2018-01-15T09:26:43.440Z,0.32
2018-01-15T09:29:09.432Z,0.27
2018-01-15T09:31:35.500Z,0.33
2018-01-15T09:34:01.528Z,0.28
2018-01-15T09:36:27.548Z,0.35
2018-01-15T09:38:53.564Z,0.40
2018-01-15T09:41:19.541Z,0.35
2018-01-15T09:43:45.539Z,0.46
2018-01-15T09:46:11.526Z,0.42
2018-01-15T09:48:37.540Z,0.49
2018-01-15T09:51:03.613Z,0.47
2018-01-15T09:53:29.656Z,0.46
2018-01-15T09:55:55.674Z,0.53
2018-01-15T09:58:21.716Z,0.47
2018-01-15T10:00:47.789Z,0.45
2018-01-15T10:03:13.858Z,0.53
2018-01-15T10:05:39.980Z,0.53
2018-01-15T10:08:05.997Z,0.34
2018-01-15T10:10:32.005Z,0.37
2018-01-15T10:12:58.024Z,0.42
2018-01-15T10:15:24.064Z,0.52
2018-01-15T10:17:50.115Z,0.65
2018-01-15T10:20:16.253Z,0.77
2018-01-15T10:22:42.295Z,0.78
2018-01-15T10:25:08.389Z,0.76
2018-01-15T10:27:34.453Z,0.80
2018-01-15T10:30:00.548Z,0.67
2018-01-15T10:32:26.644Z,0.71
2018-01-15T10:34:52.640Z,0.68
2018-01-15T10:37:18.689Z,0.83
2018-01-15T10:39:44.708Z,0.69
2018-01-15T10:42:10.725Z,0.78
2018-01-15T10:44:36.764Z,0.78
2018-01-15T10:47:02.769Z,0.74
2018-01-15T10:49:28.745Z,0.80
2018-01-15T10:51:54.728Z,0.93
2018-01-15T10:54:20.808Z,0.93
2018-01-15T10:56:46.836Z,0.88
2018-01-15T10:59:12.900Z,0.98
2018-01-15T11:01:39.056Z,0.96
2018-01-15T11:04:05.065Z,0.86
2018-01-15T11:06:31.089Z,0.95
2018-01-15T11:08:57.089Z,1.04
2018-01-15T11:11:23.122Z,1.14
2018-01-15T11:13:49.184Z,1.16
2018-01-15T11:16:15.232Z,1.07
2018-01-15T11:18:41.266Z,1.01
2018-01-15T11:21:07.311Z,0.95
2018-01-15T11:23:33.304Z,0.95
2018-01-15T11:25:59.350Z,0.96
2018-01-15T11:28:25.356Z,0.97
2018-01-15T11:30:51.368Z,1.01
2018-01-15T11:33:17.425Z,0.93
2018-01-15T11:35:43.448Z,1.02
2018-01-15T11:38:09.443Z,0.91
2018-01-15T11:40:35.491Z,1.02
2018-01-15T11:43:01.525Z,1.07
2018-01-15T11:45:27.517Z,1.06
2018-01-15T11:47:53.573Z,1.01
2018-01-15T11:50:19.532Z,1.21
2018-01-15T11:52:45.544Z,1.22
2018-01-15T11:55:11.528Z,1.24
2018-01-15T11:57:37.558Z,1.33
2018-01-15T12:00:03.734Z,1.38
2018-01-15T12:02:29.858Z,1.44
2018-01-15T12:04:55.873Z,1.39
2018-01-15T12:07:21.896Z,1.30
2018-01-15T12:09:47.936Z,1.22
2018-01-15T12:12:13.955Z,1.33
2018-01-15T12:14:39.980Z,1.47
2018-01-15T12:25:51.064Z,1.67
2018-01-15T12:28:17.081Z,1.71
2018-01-15T12:30:43.100Z,1.82
2018-01-15T12:33:09.077Z,1.71
2018-01-15T12:35:35.081Z,1.95
2018-01-15T12:38:01.872Z,2.02
2018-01-15T12:40:27.912Z,1.98
2018-01-15T12:42:53.860Z,1.83
2018-01-15T12:45:19.901Z,1.84
2018-01-15T12:47:45.917Z,1.96
2018-01-15T12:50:11.945Z,2.04
2018-01-15T12:52:37.976Z,1.97
2018-01-15T12:55:04.143Z,2.15
2018-01-15T12:57:30.184Z,2.03
2018-01-15T12:59:56.125Z,1.97
2018-01-15T13:02:22.124Z,1.80
2018-01-15T13:04:48.133Z,1.80
2018-01-15T13:07:26.252Z,1.88
2018-01-15T13:09:52.258Z,1.95
2018-01-15T13:12:18.288Z,1.73
2018-01-15T13:14:44.320Z,1.76
2018-01-15T13:17:10.316Z,1.95
2018-01-15T13:19:36.937Z,2.01
2018-01-15T13:22:02.973Z,1.99
2018-01-15T13:24:28.984Z,2.04
2018-01-15T13:26:55.028Z,1.98
2018-01-15T13:29:21.125Z,2.03
2018-01-15T13:31:47.172Z,1.99
2018-01-15T13:34:13.106Z,1.78
2018-01-15T13:36:39.121Z,1.80
2018-01-15T13:39:05.132Z,1.72
2018-01-15T13:41:31.137Z,1.72
2018-01-15T13:43:57.137Z,1.78
2018-01-15T13:46:23.168Z,1.81
2018-01-15T13:48:49.194Z,1.80
2018-01-15T13:51:15.304Z,1.72
2018-01-15T13:53:41.305Z,1.81
2018-01-15T13:56:07.338Z,1.81
2018-01-15T13:58:33.367Z,1.88
2018-01-15T14:00:59.471Z,1.76
2018-01-15T14:03:25.494Z,1.74
2018-01-15T14:05:51.520Z,1.69
2018-01-15T14:08:17.610Z,1.56
2018-01-15T14:10:43.618Z,1.54
2018-01-15T14:13:09.667Z,1.45
2018-01-15T14:15:35.672Z,1.33
2018-01-15T14:18:01.617Z,1.17
2018-01-15T14:20:27.620Z,1.24
2018-01-15T14:22:53.637Z,1.37
2018-01-15T14:25:19.657Z,1.44
2018-01-15T14:27:45.701Z,1.45
2018-01-15T14:30:12.144Z,1.38
2018-01-15T14:32:38.116Z,1.34
2018-01-15T14:35:04.256Z,1.42
2018-01-15T14:37:30.208Z,1.36
2018-01-15T14:39:56.249Z,1.36
2018-01-15T14:42:22.280Z,1.30
2018-01-15T14:44:48.319Z,1.19
2018-01-15T14:47:14.341Z,1.23
2018-01-15T14:49:40.339Z,1.21
2018-01-15T14:52:06.391Z,1.22
2018-01-15T14:54:32.383Z,1.22
2018-01-15T14:56:58.336Z,1.16
2018-01-15T14:59:24.356Z,1.18
2018-01-15T15:01:50.404Z,1.14
2018-01-15T15:04:16.442Z,1.09
2018-01-15T15:06:42.449Z,1.09
2018-01-15T15:09:08.448Z,1.10
2018-01-15T15:11:34.480Z,1.14
2018-01-15T15:14:00.500Z,1.06
2018-01-15T15:16:26.583Z,1.07
2018-01-15T15:18:52.712Z,1.02
2018-01-15T15:21:18.770Z,1.04
2018-01-15T15:23:44.820Z,0.95
2018-01-15T15:26:10.845Z,1.03
2018-01-15T15:28:36.921Z,1.08
2018-01-15T15:31:02.938Z,0.99
2018-01-15T15:33:28.904Z,1.04
2018-01-15T15:35:54.996Z,1.04
2018-01-15T15:38:21.001Z,0.96
2018-01-15T15:40:47.069Z,0.98
2018-01-15T15:43:13.120Z,0.93
2018-01-15T15:45:39.204Z,0.98
2018-01-15T15:48:05.191Z,0.97
2018-01-15T15:50:31.212Z,0.92
2018-01-15T15:52:57.334Z,0.92
2018-01-15T15:55:23.390Z,0.90
2018-01-15T15:57:49.393Z,0.83
2018-01-15T16:00:15.463Z,0.86
2018-01-15T16:02:41.562Z,0.95
2018-01-15T16:05:07.720Z,0.82
2018-01-15T16:07:33.747Z,0.85
2018-01-15T16:09:59.781Z,0.91
2018-01-15T16:12:25.819Z,0.85
2018-01-15T16:14:51.905Z,0.78
2018-01-15T16:17:17.941Z,0.87
2018-01-15T16:19:43.985Z,0.80
2018-01-15T16:22:30.791Z,0.80
2018-01-15T16:24:56.813Z,0.84
2018-01-15T16:27:22.882Z,0.86
2018-01-15T16:29:48.923Z,0.75
2018-01-15T16:32:15.030Z,0.84
2018-01-15T16:34:41.143Z,0.85
2018-01-15T16:37:07.129Z,0.75
2018-01-15T16:39:33.200Z,0.86
2018-01-15T16:41:59.289Z,0.89
2018-01-15T16:44:25.343Z,0.83
2018-01-15T16:46:51.288Z,0.85
2018-01-15T16:49:17.306Z,0.87
2018-01-15T16:51:43.372Z,0.84
2018-01-15T16:54:09.344Z,0.91
2018-01-15T16:56:35.450Z,0.88
2018-01-15T16:59:01.520Z,0.84
2018-01-15T17:01:27.564Z,0.88
2018-01-15T17:03:53.618Z,0.87
2018-01-15T17:06:19.667Z,0.94
2018-01-15T17:08:45.825Z,0.89
2018-01-15T17:11:11.932Z,0.85
2018-01-15T17:13:37.964Z,0.83
2018-01-15T17:16:04.015Z,0.80
2018-01-15T17:18:30.096Z,0.77
2018-01-15T17:20:56.128Z,0.80
2018-01-15T17:23:22.231Z,0.89
2018-01-15T17:25:48.229Z,0.85
2018-01-15T17:28:14.264Z,0.93
2018-01-15T17:30:40.371Z,0.86
2018-01-15T17:33:06.503Z,0.88
2018-01-15T17:35:32.545Z,0.82
2018-01-15T17:37:58.648Z,0.81
2018-01-15T17:40:24.719Z,0.84
2018-01-15T17:42:50.890Z,0.84
2018-01-15T17:45:17.001Z,0.77
2018-01-15T17:47:43.456Z,0.80
2018-01-15T17:50:09.404Z,0.77
2018-01-15T17:52:36.613Z,0.75
2018-01-15T17:55:03.352Z,0.76
2018-01-15T17:57:29.441Z,0.77
2018-01-15T17:59:55.504Z,0.73
2018-01-15T18:02:21.634Z,0.76
2018-01-15T18:04:47.716Z,0.70
2018-01-15T18:07:13.762Z,0.87
2018-01-15T18:09:39.826Z,0.90
2018-01-15T18:12:06.884Z,0.89
2018-01-15T18:14:32.917Z,0.91
2018-01-15T18:16:58.935Z,0.88
2018-01-15T18:19:25.024Z,0.85
2018-01-15T18:21:51.076Z,0.83
2018-01-15T18:24:17.127Z,0.81
2018-01-15T18:26:43.198Z,0.81
2018-01-15T18:29:09.321Z,0.65
2018-01-15T18:31:35.333Z,0.81
2018-01-15T18:34:01.451Z,0.77
2018-01-15T18:36:27.525Z,0.76
2018-01-15T18:38:53.531Z,0.76
2018-01-15T18:41:19.579Z,0.71
2018-01-15T18:43:45.608Z,0.74
2018-01-15T18:46:11.634Z,0.78
2018-01-15T18:48:37.722Z,0.79
2018-01-15T18:51:03.819Z,0.74
2018-01-15T18:53:29.994Z,0.87
2018-01-15T18:55:56.009Z,0.82
2018-01-15T18:58:22.041Z,0.81
2018-01-15T19:00:48.109Z,0.83
2018-01-15T19:03:14.172Z,0.70
2018-01-15T19:05:40.241Z,0.73
2018-01-15T19:08:06.240Z,0.72
2018-01-15T19:10:32.370Z,0.72
2018-01-15T19:12:58.504Z,0.77
2018-01-15T19:15:24.518Z,0.84
2018-01-15T19:17:50.777Z,0.79
2018-01-15T19:20:16.792Z,0.74
2018-01-15T19:22:43.163Z,0.74
2018-01-15T19:25:09.219Z,0.76
2018-01-15T19:27:35.224Z,0.83
2018-01-15T19:30:01.365Z,0.78
2018-01-15T19:32:27.423Z,0.80
2018-01-15T19:34:54.278Z,0.79
2018-01-15T19:37:28.391Z,0.77
2018-01-15T19:39:54.497Z,0.83
2018-01-15T19:42:20.689Z,0.82
2018-01-15T19:44:52.780Z,0.86
2018-01-15T19:47:24.956Z,0.74
2018-01-15T19:49:57.005Z,0.85
2018-01-15T19:52:29.036Z,0.83
2018-01-15T19:55:01.194Z,0.71
2018-01-15T19:57:33.372Z,0.74
2018-01-15T20:00:05.608Z,0.84
2018-01-15T20:02:37.997Z,0.75
2018-01-15T20:08:13.296Z,0.77
2018-01-15T20:10:43.334Z,0.84
2018-01-15T20:13:09.397Z,0.86
2018-01-15T20:15:35.493Z,0.89
2018-01-15T20:18:01.615Z,1.01
2018-01-15T20:20:27.605Z,0.96
2018-01-15T20:22:53.699Z,0.89
2018-01-15T20:25:19.751Z,0.92
2018-01-15T20:27:45.768Z,1.02
2018-01-15T20:30:11.891Z,1.00
2018-01-15T20:32:37.975Z,1.10
2018-01-15T20:35:04.039Z,1.10
2018-01-15T20:37:30.046Z,1.13
2018-01-15T20:39:56.085Z,1.01
2018-01-15T20:42:22.208Z,1.07
2018-01-15T20:44:48.225Z,1.07
2018-01-15T20:47:14.284Z,1.08
2018-01-15T20:49:40.324Z,1.09
2018-01-15T20:52:06.332Z,1.10
2018-01-15T20:54:32.438Z,1.13
2018-01-15T20:56:58.535Z,1.16
2018-01-15T20:59:24.561Z,1.14
2018-01-15T21:01:50.572Z,1.13
2018-01-15T21:04:16.716Z,1.18
2018-01-15T21:06:42.732Z,1.18
2018-01-15T21:09:08.772Z,1.19
2018-01-15T21:11:34.835Z,1.17
2018-01-15T21:14:00.852Z,1.16
2018-01-15T21:16:28.132Z,1.16
2018-01-15T21:18:54.177Z,1.15
2018-01-15T21:21:20.256Z,1.00
2018-01-15T21:23:46.392Z,0.95
2018-01-15T21:26:12.483Z,0.88
2018-01-15T21:28:38.579Z,0.83
2018-01-15T21:31:04.591Z,0.81
2018-01-15T21:33:30.774Z,0.68
2018-01-15T21:36:03.786Z,0.67
2018-01-15T21:38:29.857Z,0.62
2018-01-15T21:40:55.940Z,0.61
2018-01-15T21:43:21.959Z,0.60
2018-01-15T21:45:48.008Z,0.62
2018-01-15T21:48:14.003Z,0.61
2018-01-15T21:50:40.042Z,0.56
2018-01-15T21:53:06.064Z,0.66
2018-01-15T21:55:32.106Z,0.65
2018-01-15T21:57:58.149Z,0.68
2018-01-15T22:00:24.195Z,0.67
2018-01-15T22:02:50.132Z,0.70
2018-01-15T22:05:16.129Z,0.69
2018-01-15T22:07:42.177Z,0.74
2018-01-15T22:10:08.208Z,0.77
2018-01-15T22:12:34.273Z,0.74
2018-01-15T22:15:00.284Z,0.87
2018-01-15T22:17:26.311Z,0.87
2018-01-15T22:19:52.369Z,0.94
2018-01-15T22:22:18.382Z,0.97
2018-01-15T22:24:44.459Z,0.92
2018-01-15T22:27:10.512Z,0.99
2018-01-15T22:29:36.557Z,1.04
2018-01-15T22:32:02.595Z,1.04
2018-01-15T22:34:28.722Z,1.06
2018-01-15T22:36:54.776Z,1.09
2018-01-15T22:39:20.783Z,1.10
2018-01-15T22:41:46.847Z,1.12
2018-01-15T22:44:12.840Z,1.11
2018-01-15T22:46:38.825Z,1.11
2018-01-15T22:49:04.850Z,1.17
2018-01-15T22:51:30.876Z,1.18
2018-01-15T22:53:56.901Z,1.15
2018-01-15T22:56:22.889Z,1.21
2018-01-15T22:58:48.979Z,1.20
2018-01-15T23:01:15.084Z,1.17
2018-01-15T23:03:41.133Z,1.21
2018-01-15T23:06:07.652Z,1.25
2018-01-15T23:08:33.701Z,1.22
2018-01-15T23:10:59.708Z,1.27
2018-01-15T23:13:25.728Z,1.27
2018-01-15T23:15:51.776Z,1.27
2018-01-15T23:18:17.835Z,1.32
2018-01-15T23:20:43.859Z,1.28
2018-01-15T23:23:09.856Z,1.27
2018-01-15T23:25:35.884Z,1.27
2018-01-15T23:28:01.885Z,1.24
2018-01-15T23:30:27.982Z,1.22
2018-01-15T23:32:53.988Z,1.25
2018-01-15T23:35:20.032Z,1.21
2018-01-15T23:37:46.056Z,1.14
2018-01-15T23:40:12.284Z,1.19
2018-01-15T23:42:38.346Z,1.25
2018-01-15T23:45:04.430Z,1.25
2018-01-15T23:47:30.416Z,1.28
2018-01-15T23:49:56.398Z,1.28
2018-01-15T23:52:22.383Z,1.28
2018-01-15T23:54:48.406Z,1.31
2018-01-15T23:57:14.363Z,1.25
2018-01-15T23:59:40.356Z,1.30
